createdAt,value
2018-12-13T00:00:41.903Z,97436.70
2018-12-13T00:03:17.347Z,97437.50
2018-12-13T00:05:53.574Z,97448.89
2018-12-13T00:08:22.616Z,97449.10
2018-12-13T00:10:52.925Z,97446.20
2018-12-13T00:13:24.922Z,97443.86
2018-12-13T00:15:55.849Z,97457.78
2018-12-13T00:18:25.512Z,97443.75
2018-12-13T00:20:54.746Z,97447.71
2018-12-13T00:23:25.418Z,97449.33
2018-12-13T00:25:55.688Z,97444.12
2018-12-13T00:28:25.185Z,97437.55
2018-12-13T00:30:54.789Z,97441.63
2018-12-13T00:33:23.238Z,97437.33
2018-12-13T00:35:52.674Z,97428.80
2018-12-13T00:38:22.293Z,97436.86
2018-12-13T00:40:50.950Z,97434.09
2018-12-13T00:43:19.459Z,97431.91
2018-12-13T00:45:48.138Z,97431.36
2018-12-13T00:48:17.590Z,97423.86
2018-12-13T00:50:46.122Z,97428.26
2018-12-13T00:53:14.513Z,97429.09
2018-12-13T00:55:43.397Z,97416.84
2018-12-13T00:58:12.087Z,97416.14
2018-12-13T01:00:40.604Z,97409.47
2018-12-13T01:03:13.721Z,97411.48
2018-12-13T01:05:43.581Z,97411.55
2018-12-13T01:08:12.467Z,97407.11
2018-12-13T01:10:40.939Z,97408.58
2018-12-13T01:13:09.809Z,97422.02
2018-12-13T01:15:39.318Z,97423.95
2018-12-13T01:18:10.044Z,97421.25
2018-12-13T01:20:38.818Z,97423.87
2018-12-13T01:23:07.329Z,97421.47
2018-12-13T01:25:35.968Z,97416.91
2018-12-13T01:28:04.519Z,97411.99
2018-12-13T01:30:33.307Z,97416.67
2018-12-13T01:33:01.782Z,97419.02
2018-12-13T01:35:32.422Z,97414.91
2018-12-13T01:38:00.838Z,97413.08
2018-12-13T01:40:29.288Z,97407.77
2018-12-13T01:42:58.919Z,97406.84
2018-12-13T01:45:27.910Z,97405.07
2018-12-13T01:47:56.373Z,97394.25
2018-12-13T01:50:24.957Z,97391.27
2018-12-13T01:52:54.452Z,97392.30
2018-12-13T01:55:22.837Z,97385.66
2018-12-13T01:57:51.651Z,97384.97
2018-12-13T02:00:21.237Z,97380.48
2018-12-13T02:02:52.100Z,97380.29
2018-12-13T02:05:22.098Z,97373.45
2018-12-13T02:07:50.570Z,97374.15
2018-12-13T02:10:19.919Z,97376.41
2018-12-13T02:12:48.709Z,97365.30
2018-12-13T02:15:17.978Z,97364.41
2018-12-13T02:17:46.331Z,97362.58
2018-12-13T02:20:15.049Z,97361.75
2018-12-13T02:22:43.620Z,97363.77
2018-12-13T02:25:12.713Z,97351.59
2018-12-13T02:27:41.696Z,97353.34
2018-12-13T02:30:12.888Z,97347.17
2018-12-13T02:32:41.762Z,97339.36
2018-12-13T02:35:10.547Z,97335.90
2018-12-13T02:37:39.550Z,97329.34
2018-12-13T02:40:10.177Z,97328.55
2018-12-13T02:42:39.074Z,97324.13
2018-12-13T02:45:09.168Z,97317.11
2018-12-13T02:47:37.901Z,97311.75
2018-12-13T02:50:06.965Z,97303.70
2018-12-13T02:52:36.577Z,97300.45
2018-12-13T02:55:06.305Z,97302.17
2018-12-13T02:57:37.131Z,97301.14
2018-12-13T03:00:07.846Z,97295.09
2018-12-13T03:02:42.206Z,97294.89
2018-12-13T03:05:11.155Z,97278.63
2018-12-13T03:07:40.211Z,97279.61
2018-12-13T03:10:08.738Z,97273.39
2018-12-13T03:12:37.453Z,97277.91
2018-12-13T03:15:06.012Z,97272.44
2018-12-13T03:17:34.566Z,97277.59
2018-12-13T03:20:03.286Z,97270.47
2018-12-13T03:22:34.606Z,97259.38
2018-12-13T03:25:03.278Z,97263.21
2018-12-13T03:27:31.878Z,97263.21
2018-12-13T03:30:00.498Z,97266.69
2018-12-13T03:32:29.082Z,97249.52
2018-12-13T03:34:58.441Z,97251.30
2018-12-13T03:37:28.985Z,97248.70
2018-12-13T03:39:57.515Z,97244.23
2018-12-13T03:42:26.125Z,97239.07
2018-12-13T03:44:54.651Z,97233.25
2018-12-13T03:47:24.068Z,97232.80
2018-12-13T03:49:53.195Z,97232.55
2018-12-13T03:52:22.102Z,97230.33
2018-12-13T03:54:52.266Z,97229.20
2018-12-13T03:57:22.530Z,97231.80
2018-12-13T03:59:50.881Z,97222.78
2018-12-13T04:02:21.404Z,97205.81
2018-12-13T04:04:49.903Z,97211.98
2018-12-13T04:07:18.293Z,97213.20
2018-12-13T04:09:46.702Z,97207.70
2018-12-13T04:12:20.771Z,97205.62
2018-12-13T04:14:49.665Z,97200.27
2018-12-13T04:17:20.135Z,97195.73
2018-12-13T04:19:50.613Z,97199.08
2018-12-13T04:22:20.055Z,97194.56
2018-12-13T04:24:48.677Z,97187.77
2018-12-13T04:27:17.304Z,97187.41
2018-12-13T04:29:45.775Z,97187.64
2018-12-13T04:32:15.304Z,97183.00
2018-12-13T04:34:45.448Z,97178.39
2018-12-13T04:37:18.295Z,97180.89
2018-12-13T04:39:48.644Z,97177.36
2018-12-13T04:42:17.443Z,97178.83
2018-12-13T04:44:45.836Z,97171.38
2018-12-13T04:47:17.417Z,97167.11
2018-12-13T04:49:46.127Z,97167.80
2018-12-13T04:52:15.140Z,97167.80
2018-12-13T04:54:43.912Z,97171.82
2018-12-13T04:57:13.223Z,97168.92
2018-12-13T04:59:41.753Z,97168.67
2018-12-13T05:02:10.148Z,97163.13
2018-12-13T05:04:43.764Z,97164.90
2018-12-13T05:07:13.207Z,97160.15
2018-12-13T05:09:41.981Z,97158.03
2018-12-13T05:12:16.446Z,97162.94
2018-12-13T05:14:45.328Z,97162.63
2018-12-13T05:17:13.813Z,97154.31
2018-12-13T05:19:42.127Z,97157.39
2018-12-13T05:22:15.103Z,97147.24
2018-12-13T05:24:43.493Z,97151.96
2018-12-13T05:27:17.390Z,97145.92
2018-12-13T05:29:46.214Z,97144.59
2018-12-13T05:32:16.711Z,97139.11
2018-12-13T05:34:45.125Z,97143.08
2018-12-13T05:37:17.910Z,97139.94
2018-12-13T05:39:47.834Z,97149.50
2018-12-13T05:42:16.224Z,97144.45
2018-12-13T05:44:44.579Z,97140.29
2018-12-13T05:47:15.877Z,97144.55
2018-12-13T05:49:45.144Z,97133.67
2018-12-13T05:52:17.623Z,97135.52
2018-12-13T05:54:46.653Z,97127.19
2018-12-13T05:57:16.462Z,97124.94
2018-12-13T05:59:45.335Z,97130.91
2018-12-13T06:02:13.699Z,97128.47
2018-12-13T06:04:42.236Z,97121.95
2018-12-13T06:07:15.307Z,97116.55
2018-12-13T06:09:44.707Z,97122.48
2018-12-13T06:12:13.352Z,97119.55
2018-12-13T06:14:42.037Z,97120.08
2018-12-13T06:17:13.020Z,97114.78
2018-12-13T06:19:42.389Z,97117.48
2018-12-13T06:22:15.486Z,97107.39
2018-12-13T06:24:44.878Z,97116.80
2018-12-13T06:27:19.342Z,97115.47
2018-12-13T06:29:51.066Z,97118.06
2018-12-13T06:32:24.030Z,97121.02
2018-12-13T06:34:53.797Z,97113.02
2018-12-13T06:37:27.959Z,97113.51
2018-12-13T06:39:56.441Z,97119.30
2018-12-13T06:42:25.978Z,97119.05
2018-12-13T06:44:54.479Z,97114.70
2018-12-13T06:47:22.894Z,97116.16
2018-12-13T06:49:51.291Z,97113.90
2018-12-13T06:52:24.436Z,97113.02
2018-12-13T06:54:53.789Z,97122.97
2018-12-13T06:57:23.842Z,97120.52
2018-12-13T06:59:52.368Z,97121.31
2018-12-13T07:02:22.642Z,97112.18
2018-12-13T07:04:51.986Z,97131.72
2018-12-13T07:07:25.862Z,97123.96
2018-12-13T07:09:54.323Z,97118.72
2018-12-13T07:12:22.749Z,97119.92
2018-12-13T07:14:51.167Z,97121.53
2018-12-13T07:17:19.939Z,97118.16
2018-12-13T07:19:48.281Z,97116.22
2018-12-13T07:22:16.700Z,97118.56
2018-12-13T07:24:45.088Z,97116.13
2018-12-13T07:27:13.415Z,97119.67
2018-12-13T07:29:41.835Z,97118.73
2018-12-13T07:32:14.894Z,97119.63
2018-12-13T07:34:43.373Z,97122.23
2018-12-13T07:37:16.140Z,97110.92
2018-12-13T07:39:45.332Z,97114.32
2018-12-13T07:42:13.741Z,97113.13
2018-12-13T07:44:42.069Z,97107.98
2018-12-13T07:47:14.469Z,97108.34
2018-12-13T07:49:42.925Z,97112.40
2018-12-13T07:52:14.781Z,97113.17
2018-12-13T07:54:44.040Z,97109.56
2018-12-13T07:57:12.440Z,97114.23
2018-12-13T07:59:40.733Z,97110.39
2018-12-13T08:02:09.183Z,97107.17
2018-12-13T08:04:37.698Z,97112.37
2018-12-13T08:07:20.108Z,97109.30
2018-12-13T08:09:49.738Z,97108.50
2018-12-13T08:12:18.080Z,97101.58
2018-12-13T08:14:46.509Z,97104.47
2018-12-13T08:17:15.090Z,97112.72
2018-12-13T08:19:45.527Z,97115.23
2018-12-13T08:22:32.885Z,97114.52
2018-12-13T08:25:09.690Z,97115.97
2018-12-13T08:27:38.027Z,97111.59
2018-12-13T08:30:06.826Z,97110.14
2018-12-13T08:32:35.201Z,97112.69
2018-12-13T08:35:04.684Z,97114.38
2018-12-13T08:37:34.115Z,97107.64
2018-12-13T08:40:04.361Z,97106.47
2018-12-13T08:42:33.204Z,97107.13
2018-12-13T08:45:01.872Z,97111.53
2018-12-13T08:47:30.994Z,97110.20
2018-12-13T08:49:59.329Z,97121.84
2018-12-13T08:52:27.621Z,97120.72
2018-12-13T08:54:55.931Z,97125.75
2018-12-13T08:57:26.682Z,97122.99
2018-12-13T08:59:55.167Z,97128.91
2018-12-13T09:02:25.573Z,97128.23
2018-12-13T09:04:53.945Z,97126.72
2018-12-13T09:07:28.691Z,97126.99
2018-12-13T09:09:58.365Z,97119.73
2018-12-13T09:12:28.871Z,97118.41
2018-12-13T09:14:57.298Z,97103.73
2018-12-13T09:17:25.701Z,97099.16
2018-12-13T09:19:54.088Z,97101.03
2018-12-13T09:22:26.681Z,97102.19
2018-12-13T09:24:56.193Z,97099.33
2018-12-13T09:27:26.267Z,97092.48
2018-12-13T09:29:54.755Z,97101.39
2018-12-13T09:32:23.868Z,97096.87
2018-12-13T09:34:52.283Z,97093.29
2018-12-13T09:37:20.853Z,97077.16
2018-12-13T09:39:49.191Z,97072.66
2018-12-13T09:42:18.646Z,97070.09
2018-12-13T09:44:47.223Z,97066.20
2018-12-13T09:47:18.633Z,97065.68
2018-12-13T09:49:47.647Z,97060.78
2018-12-13T09:52:16.342Z,97064.03
2018-12-13T09:54:45.454Z,97066.59
2018-12-13T09:57:18.290Z,97068.02
2018-12-13T09:59:48.320Z,97060.94
2018-12-13T10:02:18.792Z,97060.41
2018-12-13T10:04:47.736Z,97052.86
2018-12-13T10:07:17.454Z,97049.58
2018-12-13T10:09:45.955Z,97039.26
2018-12-13T10:12:18.153Z,97041.30
2018-12-13T10:14:47.488Z,97044.17
2018-12-13T10:17:16.000Z,97035.67
2018-12-13T10:19:44.739Z,97033.94
2018-12-13T10:22:17.084Z,97034.25
2018-12-13T10:24:47.288Z,97027.91
2018-12-13T10:27:15.868Z,97030.65
2018-12-13T10:29:44.495Z,97023.97
2018-12-13T10:32:16.938Z,97033.91
2018-12-13T10:34:46.798Z,97031.86
2018-12-13T10:37:15.194Z,97020.99
2018-12-13T10:39:43.593Z,97028.22
2018-12-13T10:42:15.958Z,97024.69
2018-12-13T10:44:44.469Z,97021.23
2018-12-13T10:47:17.381Z,97020.20
2018-12-13T10:49:46.739Z,97020.47
2018-12-13T10:52:15.632Z,97019.08
2018-12-13T10:54:44.028Z,97013.95
2018-12-13T10:57:16.957Z,97008.45
2018-12-13T11:00:05.235Z,97011.33
2018-12-13T11:03:10.163Z,97009.83
2018-12-13T11:05:43.516Z,97010.78
2018-12-13T11:08:12.079Z,97006.68
2018-12-13T11:10:40.750Z,96999.81
2018-12-13T11:13:09.298Z,97002.69
2018-12-13T11:15:37.820Z,96999.73
2018-12-13T11:18:08.348Z,96998.52
2018-12-13T11:20:36.917Z,96995.02
2018-12-13T11:23:05.625Z,96997.08
2018-12-13T11:25:34.269Z,97000.41
2018-12-13T11:28:15.431Z,96997.92
2018-12-13T11:30:43.944Z,96995.26
2018-12-13T11:33:12.574Z,96982.55
2018-12-13T11:35:41.156Z,96982.16
2018-12-13T11:38:09.729Z,96984.83
2018-12-13T11:40:38.271Z,96971.95
2018-12-13T11:43:06.941Z,96972.45
2018-12-13T11:45:35.604Z,96967.69
2018-12-13T11:48:04.070Z,96969.63
2018-12-13T11:50:32.646Z,96964.78
2018-12-13T11:53:01.051Z,96954.08
2018-12-13T11:55:33.559Z,96951.02
2018-12-13T11:58:02.957Z,96941.95
2018-12-13T12:00:31.461Z,96936.91
2018-12-13T12:03:04.019Z,96944.01
2018-12-13T12:05:33.075Z,96939.80
2018-12-13T12:08:01.608Z,96944.70
2018-12-13T12:10:30.130Z,96942.92
2018-12-13T12:12:58.906Z,96950.36
2018-12-13T12:15:27.412Z,96941.20
2018-12-13T12:17:56.165Z,96947.09
2018-12-13T12:20:24.691Z,96943.71
2018-12-13T12:22:53.064Z,96943.11
2018-12-13T12:25:21.854Z,96945.04
2018-12-13T12:27:50.392Z,96940.70
2018-12-13T12:30:18.832Z,96942.98
2018-12-13T12:32:47.501Z,96938.72
2018-12-13T12:35:15.902Z,96935.39
2018-12-13T12:37:44.775Z,96934.55
2018-12-13T12:40:14.044Z,96939.39
2018-12-13T12:42:42.815Z,96937.11
2018-12-13T12:45:12.021Z,96940.55
2018-12-13T12:47:40.529Z,96942.88
2018-12-13T12:50:09.171Z,96943.27
2018-12-13T12:52:37.663Z,96932.67
2018-12-13T12:55:06.275Z,96926.89
2018-12-13T12:57:34.711Z,96939.94
2018-12-13T13:00:04.314Z,96927.34
2018-12-13T13:02:33.424Z,96926.50
2018-12-13T13:05:01.930Z,96925.45
2018-12-13T13:07:31.418Z,96923.48
2018-12-13T13:09:59.810Z,96926.53
2018-12-13T13:12:28.662Z,96921.36
2018-12-13T13:14:57.075Z,96916.80
2018-12-13T13:17:25.571Z,96920.25
2018-12-13T13:19:53.995Z,96918.41
2018-12-13T13:22:28.052Z,96913.15
2018-12-13T13:24:56.631Z,96917.37
2018-12-13T13:27:29.124Z,96917.05
2018-12-13T13:29:57.491Z,96906.94
2018-12-13T13:32:25.963Z,96897.13
2018-12-13T13:34:54.427Z,96899.36
2018-12-13T13:37:27.553Z,96896.41
2018-12-13T13:39:55.984Z,96894.86
2018-12-13T13:42:24.335Z,96901.02
2018-12-13T13:44:54.691Z,96902.84
2018-12-13T13:47:23.225Z,96905.00
2018-12-13T13:49:53.711Z,96897.66
2018-12-13T13:52:27.220Z,96907.31
2018-12-13T13:54:55.700Z,96900.66
2018-12-13T13:57:24.063Z,96894.19
2018-12-13T13:59:52.515Z,96901.19
2018-12-13T14:02:21.272Z,96897.64
2018-12-13T14:04:49.713Z,96896.15
2018-12-13T14:07:23.329Z,96900.59
2018-12-13T14:09:53.298Z,96896.50
2018-12-13T14:12:22.040Z,96896.59
2018-12-13T14:14:50.459Z,96893.00
2018-12-13T14:17:19.176Z,96891.67
2018-12-13T14:19:47.690Z,96889.35
2018-12-13T14:22:19.360Z,96890.56
2018-12-13T14:24:48.845Z,96898.23
2018-12-13T14:27:21.881Z,96897.13
2018-12-13T14:29:50.825Z,96889.27
2018-12-13T14:32:19.343Z,96887.62
2018-12-13T14:34:48.083Z,96877.84
2018-12-13T14:37:21.607Z,96880.64
2018-12-13T14:39:50.643Z,96878.48
2018-12-13T14:42:24.632Z,96885.45
2018-12-13T14:44:54.047Z,96885.58
2018-12-13T14:47:22.754Z,96891.85
2018-12-13T14:49:51.351Z,96895.39
2018-12-13T14:52:24.111Z,96902.05
2018-12-13T14:54:52.661Z,96902.67
2018-12-13T14:57:25.192Z,96900.95
2018-12-13T14:59:54.536Z,96894.84
2018-12-13T15:02:26.264Z,96893.70
2018-12-13T15:04:55.769Z,96898.73
2018-12-13T15:07:24.842Z,96898.47
2018-12-13T15:09:53.241Z,96892.52
2018-12-13T15:12:25.750Z,96895.30
2018-12-13T15:14:54.795Z,96889.28
2018-12-13T15:17:23.388Z,96900.66
2018-12-13T15:19:51.927Z,96904.42
2018-12-13T15:22:23.538Z,96907.27
2018-12-13T15:24:52.164Z,96910.88
2018-12-13T15:27:25.448Z,96901.13
2018-12-13T15:29:54.308Z,96903.67
2018-12-13T15:32:22.984Z,96902.05
2018-12-13T15:34:51.762Z,96899.24
2018-12-13T15:37:24.500Z,96898.13
2018-12-13T15:39:57.268Z,96899.51
2018-12-13T15:42:27.552Z,96892.18
2018-12-13T15:48:04.829Z,96905.61
2018-12-13T15:50:38.249Z,96908.70
2018-12-13T15:53:11.471Z,96917.63
2018-12-13T15:55:43.035Z,96917.24
2018-12-13T15:58:12.854Z,96920.84
2018-12-13T16:00:41.476Z,96921.06
2018-12-13T16:03:13.949Z,96922.29
2018-12-13T16:05:43.485Z,96920.84
2018-12-13T16:08:12.186Z,96926.84
2018-12-13T16:10:42.602Z,96921.09
2018-12-13T16:13:11.214Z,96925.13
2018-12-13T16:15:41.659Z,96923.17
2018-12-13T16:18:10.281Z,96922.39
2018-12-13T16:20:39.058Z,96916.14
2018-12-13T16:23:07.765Z,96915.17
2018-12-13T16:25:37.599Z,96920.68
2018-12-13T16:28:06.319Z,96919.16
2018-12-13T16:30:35.070Z,96917.69
2018-12-13T16:33:03.566Z,96919.35
2018-12-13T16:35:33.558Z,96916.30
2018-12-13T16:38:02.038Z,96916.62
2018-12-13T16:40:30.482Z,96915.75
2018-12-13T16:42:58.914Z,96907.27
2018-12-13T16:45:27.486Z,96905.89
2018-12-13T16:47:55.996Z,96905.21
2018-12-13T16:50:25.575Z,96907.77
2018-12-13T16:52:54.824Z,96907.98
2018-12-13T16:55:23.459Z,96903.56
2018-12-13T16:57:52.037Z,96904.78
2018-12-13T17:00:20.838Z,96901.73
2018-12-13T17:02:49.319Z,96902.44
2018-12-13T17:05:18.525Z,96905.60
2018-12-13T17:07:47.237Z,96897.13
2018-12-13T17:10:17.114Z,96887.70
2018-12-13T17:12:45.770Z,96896.34
2018-12-13T17:15:14.620Z,96892.30
2018-12-13T17:17:45.276Z,96890.84
2018-12-13T17:20:14.662Z,96883.70
2018-12-13T17:22:43.509Z,96889.86
2018-12-13T17:25:13.142Z,96889.53
2018-12-13T17:27:41.648Z,96891.30
2018-12-13T17:30:10.318Z,96889.47
2018-12-13T17:32:40.422Z,96879.27
2018-12-13T17:35:09.357Z,96887.23
2018-12-13T17:37:38.136Z,96887.64
2018-12-13T17:40:07.664Z,96890.84
2018-12-13T17:42:35.994Z,96888.20
2018-12-13T17:45:04.601Z,96887.27
2018-12-13T17:47:38.497Z,96888.75
2018-12-13T17:50:07.011Z,96885.31
2018-12-13T17:52:35.686Z,96885.86
2018-12-13T17:55:05.267Z,96884.92
2018-12-13T17:57:34.907Z,96889.08
2018-12-13T18:00:05.994Z,96886.75
2018-12-13T18:02:37.006Z,96883.87
2018-12-13T18:05:06.090Z,96889.70
2018-12-13T18:07:34.441Z,96894.64
2018-12-13T18:10:15.926Z,96899.57
2018-12-13T18:15:57.400Z,96896.07
2018-12-13T18:27:37.580Z,96897.34
2018-12-13T18:30:28.944Z,96897.49
2018-12-13T18:33:12.577Z,96895.63
2018-12-13T18:36:01.507Z,96905.38
2018-12-13T18:42:15.981Z,96898.63
2018-12-13T18:45:03.942Z,96900.33
2018-12-13T18:47:43.911Z,96897.56
2018-12-13T18:50:41.510Z,96905.81
2018-12-13T18:53:32.586Z,96910.09
2018-12-13T18:56:12.325Z,96904.26
2018-12-13T18:58:58.485Z,96898.83
2018-12-13T19:01:42.742Z,96906.98
2018-12-13T19:04:25.885Z,96906.59
2018-12-13T19:07:16.010Z,96904.55
2018-12-13T19:10:03.433Z,96902.20
2018-12-13T19:12:53.698Z,96894.95
2018-12-13T19:21:47.053Z,96897.27
2018-12-13T19:24:41.977Z,96902.49
2018-12-13T19:27:25.815Z,96909.65
2018-12-13T19:30:10.959Z,96909.65
2018-12-13T19:32:42.015Z,96911.34
2018-12-13T19:35:28.075Z,96917.45
2018-12-13T19:38:23.502Z,96913.09
2018-12-13T19:41:03.235Z,96914.47
2018-12-13T19:43:47.639Z,96909.91
2018-12-13T19:46:38.028Z,96915.73
2018-12-13T19:49:22.728Z,96918.20
2018-12-13T19:52:02.427Z,96918.22
2018-12-13T19:54:47.715Z,96912.23
2018-12-13T19:57:37.724Z,96920.11
2018-12-13T20:00:26.491Z,96912.88
2018-12-13T20:18:40.199Z,96906.13
2018-12-13T20:21:10.650Z,96899.59
2018-12-13T20:23:50.973Z,96916.16
2018-12-13T20:26:37.280Z,96910.23
2018-12-13T20:29:19.703Z,96906.13
2018-12-13T20:32:09.651Z,96907.34
2018-12-13T20:34:46.000Z,96906.42
2018-12-13T20:37:27.217Z,96905.48
2018-12-13T20:39:56.643Z,96910.91
2018-12-13T20:48:25.796Z,96909.86
2018-12-13T20:51:04.285Z,96910.84
2018-12-13T20:53:48.209Z,96907.28
2018-12-13T20:59:19.148Z,96896.53
2018-12-13T21:02:02.963Z,96902.25
2018-12-13T21:10:46.067Z,96904.63
2018-12-13T21:13:38.605Z,96907.64
2018-12-13T21:19:20.062Z,96911.59
2018-12-13T21:21:58.417Z,96914.39
2018-12-13T21:24:41.941Z,96918.71
2018-12-13T21:30:49.131Z,96918.78
2018-12-13T21:46:17.123Z,96919.03
2018-12-13T22:19:11.665Z,96932.23
2018-12-13T22:37:31.255Z,96930.00
2018-12-13T22:40:13.814Z,96925.87
2018-12-13T22:42:58.712Z,96932.23
2018-12-13T22:45:44.257Z,96926.69
2018-12-13T22:48:26.721Z,96929.39
2018-12-13T22:51:00.933Z,96927.66
2018-12-13T22:56:40.565Z,96925.19
2018-12-13T22:59:17.733Z,96923.17
2018-12-13T23:02:01.921Z,96928.74
2018-12-13T23:04:43.667Z,96929.71
2018-12-13T23:07:19.759Z,96920.84
2018-12-13T23:10:06.147Z,96928.81
2018-12-13T23:12:46.521Z,96929.28
2018-12-13T23:15:19.456Z,96930.65
2018-12-13T23:18:02.909Z,96924.94
2018-12-13T23:20:34.755Z,96921.95
2018-12-13T23:23:03.847Z,96922.92
2018-12-13T23:25:51.793Z,96927.13
2018-12-13T23:28:30.286Z,96923.28
2018-12-13T23:31:01.318Z,96921.73
2018-12-13T23:33:49.444Z,96923.28
2018-12-13T23:36:22.717Z,96915.52
2018-12-13T23:38:54.486Z,96920.05
2018-12-13T23:41:39.380Z,96924.83
2018-12-13T23:44:18.695Z,96925.11
2018-12-13T23:46:53.251Z,96913.25
2018-12-13T23:49:34.007Z,96913.14
2018-12-13T23:52:13.046Z,96913.11
2018-12-13T23:54:59.702Z,96917.53
2018-12-13T23:57:38.454Z,96918.75
